sensor_id;sensor_type;location;lat;lon;timestamp;temperature;humidity
17483;DHT22;8858;52.308;20.994;2023-12-29T00:00:35;7.10;99.90
17483;DHT22;8858;52.308;20.994;2023-12-29T00:03:05;7.10;99.90
17483;DHT22;8858;52.308;20.994;2023-12-29T00:05:37;7.10;99.90
17483;DHT22;8858;52.308;20.994;2023-12-29T00:08:06;7.10;99.90
17483;DHT22;8858;52.308;20.994;2023-12-29T00:10:34;7.10;99.90
17483;DHT22;8858;52.308;20.994;2023-12-29T00:13:03;7.10;99.90
17483;DHT22;8858;52.308;20.994;2023-12-29T00:15:32;7.10;99.90
17483;DHT22;8858;52.308;20.994;2023-12-29T00:18:00;7.10;99.90
17483;DHT22;8858;52.308;20.994;2023-12-29T00:20:29;7.10;99.90
17483;DHT22;8858;52.308;20.994;2023-12-29T00:23:09;7.10;99.90
17483;DHT22;8858;52.308;20.994;2023-12-29T00:25:38;7.10;99.90
17483;DHT22;8858;52.308;20.994;2023-12-29T00:28:08;7.10;99.90
17483;DHT22;8858;52.308;20.994;2023-12-29T00:30:38;7.10;99.90
17483;DHT22;8858;52.308;20.994;2023-12-29T00:33:27;7.10;99.90
17483;DHT22;8858;52.308;20.994;2023-12-29T00:35:57;7.10;99.90
17483;DHT22;8858;52.308;20.994;2023-12-29T00:38:27;7.10;99.90
17483;DHT22;8858;52.308;20.994;2023-12-29T00:40:55;7.20;99.90
17483;DHT22;8858;52.308;20.994;2023-12-29T00:43:24;7.10;99.90
17483;DHT22;8858;52.308;20.994;2023-12-29T00:45:56;7.20;99.90
17483;DHT22;8858;52.308;20.994;2023-12-29T00:48:25;7.20;99.90
17483;DHT22;8858;52.308;20.994;2023-12-29T00:50:54;7.20;99.90
17483;DHT22;8858;52.308;20.994;2023-12-29T00:53:24;7.20;99.90
17483;DHT22;8858;52.308;20.994;2023-12-29T00:55:54;7.20;99.90
17483;DHT22;8858;52.308;20.994;2023-12-29T00:58:25;7.10;99.90
17483;DHT22;8858;52.308;20.994;2023-12-29T01:00:53;7.10;99.90
17483;DHT22;8858;52.308;20.994;2023-12-29T01:03:21;7.10;99.90
17483;DHT22;8858;52.308;20.994;2023-12-29T01:05:53;7.20;99.90
17483;DHT22;8858;52.308;20.994;2023-12-29T01:08:21;7.20;99.90
17483;DHT22;8858;52.308;20.994;2023-12-29T01:10:49;7.20;99.90
17483;DHT22;8858;52.308;20.994;2023-12-29T01:13:19;7.10;99.90
17483;DHT22;8858;52.308;20.994;2023-12-29T01:15:48;7.10;99.90
17483;DHT22;8858;52.308;20.994;2023-12-29T01:18:16;7.10;99.90
17483;DHT22;8858;52.308;20.994;2023-12-29T01:20:45;7.20;99.90
17483;DHT22;8858;52.308;20.994;2023-12-29T01:23:14;7.20;99.90
17483;DHT22;8858;52.308;20.994;2023-12-29T01:25:43;7.20;99.90
17483;DHT22;8858;52.308;20.994;2023-12-29T01:28:14;7.20;99.90
17483;DHT22;8858;52.308;20.994;2023-12-29T01:30:44;7.20;99.90
17483;DHT22;8858;52.308;20.994;2023-12-29T01:33:13;7.20;99.90
17483;DHT22;8858;52.308;20.994;2023-12-29T01:35:42;7.20;99.90
17483;DHT22;8858;52.308;20.994;2023-12-29T01:38:10;7.20;99.90
17483;DHT22;8858;52.308;20.994;2023-12-29T01:40:43;7.20;99.90
17483;DHT22;8858;52.308;20.994;2023-12-29T01:43:13;7.20;99.90
17483;DHT22;8858;52.308;20.994;2023-12-29T01:45:43;7.20;99.90
17483;DHT22;8858;52.308;20.994;2023-12-29T01:48:24;7.20;99.90
17483;DHT22;8858;52.308;20.994;2023-12-29T01:50:54;7.10;99.90
17483;DHT22;8858;52.308;20.994;2023-12-29T01:53:25;7.10;99.90
17483;DHT22;8858;52.308;20.994;2023-12-29T01:56:08;7.10;99.90
17483;DHT22;8858;52.308;20.994;2023-12-29T01:58:37;7.10;99.90
17483;DHT22;8858;52.308;20.994;2023-12-29T02:01:07;7.10;99.90
17483;DHT22;8858;52.308;20.994;2023-12-29T02:03:39;7.10;99.90
17483;DHT22;8858;52.308;20.994;2023-12-29T02:06:08;7.10;99.90
17483;DHT22;8858;52.308;20.994;2023-12-29T02:08:59;7.10;99.90
17483;DHT22;8858;52.308;20.994;2023-12-29T02:11:54;7.10;99.90
17483;DHT22;8858;52.308;20.994;2023-12-29T02:14:23;7.10;99.90
17483;DHT22;8858;52.308;20.994;2023-12-29T02:17:01;7.10;99.90
17483;DHT22;8858;52.308;20.994;2023-12-29T02:19:39;7.10;99.90
17483;DHT22;8858;52.308;20.994;2023-12-29T02:22:09;7.20;99.90
17483;DHT22;8858;52.308;20.994;2023-12-29T02:24:38;7.20;99.90
17483;DHT22;8858;52.308;20.994;2023-12-29T02:27:26;7.20;99.90
17483;DHT22;8858;52.308;20.994;2023-12-29T02:30:06;7.20;99.90
17483;DHT22;8858;52.308;20.994;2023-12-29T02:32:39;7.20;99.90
17483;DHT22;8858;52.308;20.994;2023-12-29T02:35:14;7.10;99.90
17483;DHT22;8858;52.308;20.994;2023-12-29T02:37:42;7.20;99.90
17483;DHT22;8858;52.308;20.994;2023-12-29T02:40:12;7.10;99.90
17483;DHT22;8858;52.308;20.994;2023-12-29T02:42:48;7.20;99.90
17483;DHT22;8858;52.308;20.994;2023-12-29T02:45:18;7.20;99.90
17483;DHT22;8858;52.308;20.994;2023-12-29T02:47:47;7.10;99.90
17483;DHT22;8858;52.308;20.994;2023-12-29T02:50:16;7.10;99.90
17483;DHT22;8858;52.308;20.994;2023-12-29T02:52:46;7.10;99.90
17483;DHT22;8858;52.308;20.994;2023-12-29T02:55:15;7.10;99.90
17483;DHT22;8858;52.308;20.994;2023-12-29T02:57:43;7.10;99.90
17483;DHT22;8858;52.308;20.994;2023-12-29T03:00:15;7.10;99.90
17483;DHT22;8858;52.308;20.994;2023-12-29T03:02:43;7.10;99.90
17483;DHT22;8858;52.308;20.994;2023-12-29T03:05:14;7.10;99.90
17483;DHT22;8858;52.308;20.994;2023-12-29T03:07:42;7.10;99.90
17483;DHT22;8858;52.308;20.994;2023-12-29T03:10:12;7.10;99.90
17483;DHT22;8858;52.308;20.994;2023-12-29T03:12:41;7.10;99.90
17483;DHT22;8858;52.308;20.994;2023-12-29T03:15:10;7.10;99.90
17483;DHT22;8858;52.308;20.994;2023-12-29T03:17:40;7.10;99.90
17483;DHT22;8858;52.308;20.994;2023-12-29T03:20:09;7.10;99.90
17483;DHT22;8858;52.308;20.994;2023-12-29T03:22:38;7.10;99.90
17483;DHT22;8858;52.308;20.994;2023-12-29T03:25:07;7.10;99.90
17483;DHT22;8858;52.308;20.994;2023-12-29T03:27:36;7.10;99.90
17483;DHT22;8858;52.308;20.994;2023-12-29T03:30:06;7.10;99.90
17483;DHT22;8858;52.308;20.994;2023-12-29T03:32:35;7.00;99.90
17483;DHT22;8858;52.308;20.994;2023-12-29T03:35:05;7.10;99.90
17483;DHT22;8858;52.308;20.994;2023-12-29T03:37:34;7.10;99.90
17483;DHT22;8858;52.308;20.994;2023-12-29T03:40:02;7.10;99.90
17483;DHT22;8858;52.308;20.994;2023-12-29T03:42:32;7.10;99.90
17483;DHT22;8858;52.308;20.994;2023-12-29T03:45:00;7.10;99.90
17483;DHT22;8858;52.308;20.994;2023-12-29T03:47:28;7.10;99.90
17483;DHT22;8858;52.308;20.994;2023-12-29T03:49:59;7.10;99.90
17483;DHT22;8858;52.308;20.994;2023-12-29T03:52:29;7.10;99.90
17483;DHT22;8858;52.308;20.994;2023-12-29T03:54:59;7.10;99.90
17483;DHT22;8858;52.308;20.994;2023-12-29T03:57:28;7.00;99.90
17483;DHT22;8858;52.308;20.994;2023-12-29T04:00:00;7.00;99.90
17483;DHT22;8858;52.308;20.994;2023-12-29T04:02:38;7.00;99.90
17483;DHT22;8858;52.308;20.994;2023-12-29T04:05:08;7.10;99.90
17483;DHT22;8858;52.308;20.994;2023-12-29T04:07:39;7.10;99.90
17483;DHT22;8858;52.308;20.994;2023-12-29T04:10:10;7.10;99.90
17483;DHT22;8858;52.308;20.994;2023-12-29T04:12:41;7.00;99.90
17483;DHT22;8858;52.308;20.994;2023-12-29T04:15:11;7.10;99.90
17483;DHT22;8858;52.308;20.994;2023-12-29T04:17:39;7.00;99.90
17483;DHT22;8858;52.308;20.994;2023-12-29T04:20:08;7.00;99.90
17483;DHT22;8858;52.308;20.994;2023-12-29T04:22:40;7.00;99.90
17483;DHT22;8858;52.308;20.994;2023-12-29T04:25:12;7.00;99.90
17483;DHT22;8858;52.308;20.994;2023-12-29T04:27:41;6.90;99.90
17483;DHT22;8858;52.308;20.994;2023-12-29T04:30:13;6.90;99.90
17483;DHT22;8858;52.308;20.994;2023-12-29T04:32:42;6.90;99.90
17483;DHT22;8858;52.308;20.994;2023-12-29T04:35:10;6.90;99.90
17483;DHT22;8858;52.308;20.994;2023-12-29T04:37:44;6.90;99.90
17483;DHT22;8858;52.308;20.994;2023-12-29T04:40:13;6.90;99.90
17483;DHT22;8858;52.308;20.994;2023-12-29T04:42:43;6.90;99.90
17483;DHT22;8858;52.308;20.994;2023-12-29T04:45:11;6.90;99.90
17483;DHT22;8858;52.308;20.994;2023-12-29T04:47:40;6.90;99.90
17483;DHT22;8858;52.308;20.994;2023-12-29T04:50:09;6.80;99.90
17483;DHT22;8858;52.308;20.994;2023-12-29T04:52:38;6.80;99.90
17483;DHT22;8858;52.308;20.994;2023-12-29T04:55:08;6.80;99.90
17483;DHT22;8858;52.308;20.994;2023-12-29T04:57:36;6.80;99.90
17483;DHT22;8858;52.308;20.994;2023-12-29T05:00:07;6.80;99.90
17483;DHT22;8858;52.308;20.994;2023-12-29T05:02:36;6.80;99.90
17483;DHT22;8858;52.308;20.994;2023-12-29T05:05:05;6.80;99.90
17483;DHT22;8858;52.308;20.994;2023-12-29T05:07:35;6.80;99.90
17483;DHT22;8858;52.308;20.994;2023-12-29T05:10:04;6.80;99.90
17483;DHT22;8858;52.308;20.994;2023-12-29T05:12:35;6.70;99.90
17483;DHT22;8858;52.308;20.994;2023-12-29T05:15:05;6.70;99.90
17483;DHT22;8858;52.308;20.994;2023-12-29T05:17:35;6.70;99.90
17483;DHT22;8858;52.308;20.994;2023-12-29T05:20:04;6.70;99.90
17483;DHT22;8858;52.308;20.994;2023-12-29T05:22:32;6.70;99.90
17483;DHT22;8858;52.308;20.994;2023-12-29T05:25:02;6.70;99.90
17483;DHT22;8858;52.308;20.994;2023-12-29T05:27:30;6.70;99.90
17483;DHT22;8858;52.308;20.994;2023-12-29T05:30:03;6.70;99.90
17483;DHT22;8858;52.308;20.994;2023-12-29T05:32:33;6.70;99.90
17483;DHT22;8858;52.308;20.994;2023-12-29T05:35:01;6.70;99.90
17483;DHT22;8858;52.308;20.994;2023-12-29T05:37:32;6.70;99.90
17483;DHT22;8858;52.308;20.994;2023-12-29T05:40:00;6.70;99.90
17483;DHT22;8858;52.308;20.994;2023-12-29T05:42:29;6.70;99.90
17483;DHT22;8858;52.308;20.994;2023-12-29T05:44:59;6.70;99.90
17483;DHT22;8858;52.308;20.994;2023-12-29T05:47:29;6.70;99.90
17483;DHT22;8858;52.308;20.994;2023-12-29T05:49:58;6.70;99.90
17483;DHT22;8858;52.308;20.994;2023-12-29T05:52:28;6.70;99.90
17483;DHT22;8858;52.308;20.994;2023-12-29T05:54:56;6.80;99.90
17483;DHT22;8858;52.308;20.994;2023-12-29T05:57:28;6.80;99.90
17483;DHT22;8858;52.308;20.994;2023-12-29T05:59:56;6.80;99.90
17483;DHT22;8858;52.308;20.994;2023-12-29T06:02:30;6.80;99.90
17483;DHT22;8858;52.308;20.994;2023-12-29T06:04:58;6.90;99.90
17483;DHT22;8858;52.308;20.994;2023-12-29T06:07:26;6.90;99.90
17483;DHT22;8858;52.308;20.994;2023-12-29T06:09:57;6.90;99.90
17483;DHT22;8858;52.308;20.994;2023-12-29T06:12:25;7.00;99.90
17483;DHT22;8858;52.308;20.994;2023-12-29T06:14:53;7.00;99.90
17483;DHT22;8858;52.308;20.994;2023-12-29T06:17:22;7.00;99.90
17483;DHT22;8858;52.308;20.994;2023-12-29T06:19:51;7.10;99.90
17483;DHT22;8858;52.308;20.994;2023-12-29T06:22:19;7.10;99.90
17483;DHT22;8858;52.308;20.994;2023-12-29T06:24:48;7.10;99.90
17483;DHT22;8858;52.308;20.994;2023-12-29T06:27:16;7.10;99.90
17483;DHT22;8858;52.308;20.994;2023-12-29T06:29:45;7.20;99.90
17483;DHT22;8858;52.308;20.994;2023-12-29T06:32:13;7.20;99.90
17483;DHT22;8858;52.308;20.994;2023-12-29T06:34:41;7.20;99.90
17483;DHT22;8858;52.308;20.994;2023-12-29T06:37:12;7.30;99.90
17483;DHT22;8858;52.308;20.994;2023-12-29T06:39:41;7.30;99.90
17483;DHT22;8858;52.308;20.994;2023-12-29T06:42:11;7.40;99.90
17483;DHT22;8858;52.308;20.994;2023-12-29T06:44:39;7.40;99.90
17483;DHT22;8858;52.308;20.994;2023-12-29T06:47:08;7.40;99.90
17483;DHT22;8858;52.308;20.994;2023-12-29T06:49:39;7.40;99.90
17483;DHT22;8858;52.308;20.994;2023-12-29T06:52:08;7.50;99.90
17483;DHT22;8858;52.308;20.994;2023-12-29T06:54:41;7.50;99.90
17483;DHT22;8858;52.308;20.994;2023-12-29T06:57:10;7.50;99.90
17483;DHT22;8858;52.308;20.994;2023-12-29T06:59:42;7.50;99.90
17483;DHT22;8858;52.308;20.994;2023-12-29T07:02:10;7.50;99.90
17483;DHT22;8858;52.308;20.994;2023-12-29T07:04:42;7.50;99.90
17483;DHT22;8858;52.308;20.994;2023-12-29T07:07:14;7.60;99.90
17483;DHT22;8858;52.308;20.994;2023-12-29T07:09:43;7.60;99.90
17483;DHT22;8858;52.308;20.994;2023-12-29T07:12:15;7.60;99.90
17483;DHT22;8858;52.308;20.994;2023-12-29T07:14:43;7.60;99.90
17483;DHT22;8858;52.308;20.994;2023-12-29T07:17:12;7.60;99.90
17483;DHT22;8858;52.308;20.994;2023-12-29T07:19:43;7.60;99.90
17483;DHT22;8858;52.308;20.994;2023-12-29T07:22:11;7.60;99.90
17483;DHT22;8858;52.308;20.994;2023-12-29T07:24:44;7.70;99.90
17483;DHT22;8858;52.308;20.994;2023-12-29T07:27:13;7.60;99.90
17483;DHT22;8858;52.308;20.994;2023-12-29T07:29:42;7.60;99.90
17483;DHT22;8858;52.308;20.994;2023-12-29T07:32:10;7.70;99.90
17483;DHT22;8858;52.308;20.994;2023-12-29T07:34:38;7.70;99.90
17483;DHT22;8858;52.308;20.994;2023-12-29T07:37:07;7.70;99.90
17483;DHT22;8858;52.308;20.994;2023-12-29T07:39:36;7.70;99.90
17483;DHT22;8858;52.308;20.994;2023-12-29T07:42:06;7.70;99.90
17483;DHT22;8858;52.308;20.994;2023-12-29T07:44:37;7.70;99.90
17483;DHT22;8858;52.308;20.994;2023-12-29T07:47:05;7.70;99.90
17483;DHT22;8858;52.308;20.994;2023-12-29T07:49:33;7.70;99.90
17483;DHT22;8858;52.308;20.994;2023-12-29T07:52:02;7.70;99.90
17483;DHT22;8858;52.308;20.994;2023-12-29T07:54:33;7.70;99.90
17483;DHT22;8858;52.308;20.994;2023-12-29T07:57:06;7.70;99.90
17483;DHT22;8858;52.308;20.994;2023-12-29T07:59:34;7.70;99.90
17483;DHT22;8858;52.308;20.994;2023-12-29T08:02:03;7.80;99.90
17483;DHT22;8858;52.308;20.994;2023-12-29T08:04:32;7.80;99.90
17483;DHT22;8858;52.308;20.994;2023-12-29T08:07:00;7.80;99.90
17483;DHT22;8858;52.308;20.994;2023-12-29T08:09:28;7.80;99.90
17483;DHT22;8858;52.308;20.994;2023-12-29T08:11:56;7.80;99.90
17483;DHT22;8858;52.308;20.994;2023-12-29T08:14:29;7.80;99.90
17483;DHT22;8858;52.308;20.994;2023-12-29T08:16:57;7.90;99.90
17483;DHT22;8858;52.308;20.994;2023-12-29T08:19:26;7.90;99.90
17483;DHT22;8858;52.308;20.994;2023-12-29T08:21:55;7.90;99.90
17483;DHT22;8858;52.308;20.994;2023-12-29T08:24:24;7.90;99.90
17483;DHT22;8858;52.308;20.994;2023-12-29T08:26:52;7.90;99.90
17483;DHT22;8858;52.308;20.994;2023-12-29T08:29:23;8.00;99.90
17483;DHT22;8858;52.308;20.994;2023-12-29T08:31:53;8.00;99.90
17483;DHT22;8858;52.308;20.994;2023-12-29T08:34:24;8.00;99.90
17483;DHT22;8858;52.308;20.994;2023-12-29T08:36:54;8.10;99.90
17483;DHT22;8858;52.308;20.994;2023-12-29T08:39:23;8.10;99.90
17483;DHT22;8858;52.308;20.994;2023-12-29T08:41:51;8.10;99.90
17483;DHT22;8858;52.308;20.994;2023-12-29T08:44:19;8.10;99.90
17483;DHT22;8858;52.308;20.994;2023-12-29T08:46:50;8.20;99.90
17483;DHT22;8858;52.308;20.994;2023-12-29T08:49:20;8.30;99.90
17483;DHT22;8858;52.308;20.994;2023-12-29T08:51:48;8.30;99.90
17483;DHT22;8858;52.308;20.994;2023-12-29T08:54:17;8.40;99.90
17483;DHT22;8858;52.308;20.994;2023-12-29T08:56:45;8.40;99.90
17483;DHT22;8858;52.308;20.994;2023-12-29T08:59:16;8.50;99.90
17483;DHT22;8858;52.308;20.994;2023-12-29T09:01:45;8.60;99.90
17483;DHT22;8858;52.308;20.994;2023-12-29T09:04:14;8.60;99.90
17483;DHT22;8858;52.308;20.994;2023-12-29T09:06:48;8.60;99.90
17483;DHT22;8858;52.308;20.994;2023-12-29T09:09:17;8.60;99.90
17483;DHT22;8858;52.308;20.994;2023-12-29T09:11:48;8.70;99.90
17483;DHT22;8858;52.308;20.994;2023-12-29T09:14:17;8.70;99.90
17483;DHT22;8858;52.308;20.994;2023-12-29T09:16:50;8.70;99.90
17483;DHT22;8858;52.308;20.994;2023-12-29T09:19:18;8.70;99.90
17483;DHT22;8858;52.308;20.994;2023-12-29T09:22:03;8.70;99.90
17483;DHT22;8858;52.308;20.994;2023-12-29T09:24:31;8.80;99.90
17483;DHT22;8858;52.308;20.994;2023-12-29T09:27:00;8.90;99.90
17483;DHT22;8858;52.308;20.994;2023-12-29T09:29:31;9.00;99.90
17483;DHT22;8858;52.308;20.994;2023-12-29T09:32:00;9.00;99.90
17483;DHT22;8858;52.308;20.994;2023-12-29T09:34:29;9.00;99.90
17483;DHT22;8858;52.308;20.994;2023-12-29T09:36:57;9.10;99.90
17483;DHT22;8858;52.308;20.994;2023-12-29T09:39:26;9.10;99.90
17483;DHT22;8858;52.308;20.994;2023-12-29T09:41:58;9.10;99.90
17483;DHT22;8858;52.308;20.994;2023-12-29T09:44:28;9.10;99.90
17483;DHT22;8858;52.308;20.994;2023-12-29T09:47:01;9.10;99.90
17483;DHT22;8858;52.308;20.994;2023-12-29T09:49:37;9.10;99.90
17483;DHT22;8858;52.308;20.994;2023-12-29T09:52:07;9.10;99.90
17483;DHT22;8858;52.308;20.994;2023-12-29T09:54:39;9.10;99.90
17483;DHT22;8858;52.308;20.994;2023-12-29T09:57:09;9.20;99.90
17483;DHT22;8858;52.308;20.994;2023-12-29T09:59:38;9.20;99.90
17483;DHT22;8858;52.308;20.994;2023-12-29T10:02:14;9.30;99.90
17483;DHT22;8858;52.308;20.994;2023-12-29T10:04:46;9.30;99.90
17483;DHT22;8858;52.308;20.994;2023-12-29T10:07:20;9.30;99.90
17483;DHT22;8858;52.308;20.994;2023-12-29T10:09:57;9.40;99.90
17483;DHT22;8858;52.308;20.994;2023-12-29T10:12:28;9.40;99.90
17483;DHT22;8858;52.308;20.994;2023-12-29T10:15:04;9.40;99.90
17483;DHT22;8858;52.308;20.994;2023-12-29T10:17:43;9.40;99.90
17483;DHT22;8858;52.308;20.994;2023-12-29T10:20:27;9.40;99.90
17483;DHT22;8858;52.308;20.994;2023-12-29T10:23:06;9.50;99.90
17483;DHT22;8858;52.308;20.994;2023-12-29T10:25:36;9.60;99.90
17483;DHT22;8858;52.308;20.994;2023-12-29T10:28:07;9.60;99.90
17483;DHT22;8858;52.308;20.994;2023-12-29T10:30:37;9.60;99.90
17483;DHT22;8858;52.308;20.994;2023-12-29T10:33:07;9.60;99.90
17483;DHT22;8858;52.308;20.994;2023-12-29T10:35:37;9.60;99.90
17483;DHT22;8858;52.308;20.994;2023-12-29T10:38:10;9.60;99.90
17483;DHT22;8858;52.308;20.994;2023-12-29T10:40:44;9.70;99.90
17483;DHT22;8858;52.308;20.994;2023-12-29T10:43:13;9.70;99.90
17483;DHT22;8858;52.308;20.994;2023-12-29T10:45:45;9.70;99.90
17483;DHT22;8858;52.308;20.994;2023-12-29T10:48:21;9.60;99.90
17483;DHT22;8858;52.308;20.994;2023-12-29T10:50:51;9.70;99.90
17483;DHT22;8858;52.308;20.994;2023-12-29T10:53:19;9.70;99.90
17483;DHT22;8858;52.308;20.994;2023-12-29T10:55:49;9.70;99.90
17483;DHT22;8858;52.308;20.994;2023-12-29T10:58:19;9.70;99.90
17483;DHT22;8858;52.308;20.994;2023-12-29T11:00:48;9.80;99.90
17483;DHT22;8858;52.308;20.994;2023-12-29T11:03:20;9.80;99.90
17483;DHT22;8858;52.308;20.994;2023-12-29T11:05:48;9.80;99.90
17483;DHT22;8858;52.308;20.994;2023-12-29T11:08:18;9.90;99.90
17483;DHT22;8858;52.308;20.994;2023-12-29T11:10:49;9.90;99.90
17483;DHT22;8858;52.308;20.994;2023-12-29T11:13:20;9.90;99.90
17483;DHT22;8858;52.308;20.994;2023-12-29T11:15:48;9.90;99.90
17483;DHT22;8858;52.308;20.994;2023-12-29T11:18:18;9.90;99.90
17483;DHT22;8858;52.308;20.994;2023-12-29T11:20:47;9.90;99.90
17483;DHT22;8858;52.308;20.994;2023-12-29T11:23:16;9.90;99.90
17483;DHT22;8858;52.308;20.994;2023-12-29T11:25:45;9.90;99.90
17483;DHT22;8858;52.308;20.994;2023-12-29T11:28:15;9.90;99.90
17483;DHT22;8858;52.308;20.994;2023-12-29T11:30:44;10.00;99.90
17483;DHT22;8858;52.308;20.994;2023-12-29T11:33:17;9.90;99.90
17483;DHT22;8858;52.308;20.994;2023-12-29T11:35:50;9.90;99.90
17483;DHT22;8858;52.308;20.994;2023-12-29T11:38:27;9.90;99.90
17483;DHT22;8858;52.308;20.994;2023-12-29T11:41:04;9.90;99.90
17483;DHT22;8858;52.308;20.994;2023-12-29T11:43:35;9.90;99.90
17483;DHT22;8858;52.308;20.994;2023-12-29T11:46:04;10.00;99.90
17483;DHT22;8858;52.308;20.994;2023-12-29T11:48:54;10.00;99.90
17483;DHT22;8858;52.308;20.994;2023-12-29T11:51:28;10.00;99.90
17483;DHT22;8858;52.308;20.994;2023-12-29T11:54:03;10.00;99.90
17483;DHT22;8858;52.308;20.994;2023-12-29T11:56:34;10.00;99.90
17483;DHT22;8858;52.308;20.994;2023-12-29T11:59:25;10.00;99.90
17483;DHT22;8858;52.308;20.994;2023-12-29T12:01:56;10.10;99.90
17483;DHT22;8858;52.308;20.994;2023-12-29T12:04:36;10.20;99.90
17483;DHT22;8858;52.308;20.994;2023-12-29T12:07:05;10.20;99.90
17483;DHT22;8858;52.308;20.994;2023-12-29T12:09:34;10.20;99.90
17483;DHT22;8858;52.308;20.994;2023-12-29T12:12:04;10.10;99.90
17483;DHT22;8858;52.308;20.994;2023-12-29T12:14:49;10.20;99.90
17483;DHT22;8858;52.308;20.994;2023-12-29T12:17:31;10.20;99.90
17483;DHT22;8858;52.308;20.994;2023-12-29T12:20:03;10.20;99.90
17483;DHT22;8858;52.308;20.994;2023-12-29T12:22:33;10.20;99.90
17483;DHT22;8858;52.308;20.994;2023-12-29T12:25:07;10.20;99.90
17483;DHT22;8858;52.308;20.994;2023-12-29T12:27:37;10.20;99.90
17483;DHT22;8858;52.308;20.994;2023-12-29T12:30:09;10.20;99.90
17483;DHT22;8858;52.308;20.994;2023-12-29T12:32:38;10.20;99.90
17483;DHT22;8858;52.308;20.994;2023-12-29T12:35:13;10.20;99.90
17483;DHT22;8858;52.308;20.994;2023-12-29T12:37:46;10.20;99.90
17483;DHT22;8858;52.308;20.994;2023-12-29T12:40:24;10.00;99.90
17483;DHT22;8858;52.308;20.994;2023-12-29T12:42:53;10.10;99.90
17483;DHT22;8858;52.308;20.994;2023-12-29T12:45:26;10.10;99.90
17483;DHT22;8858;52.308;20.994;2023-12-29T12:48:02;10.10;99.90
17483;DHT22;8858;52.308;20.994;2023-12-29T12:50:31;10.20;99.90
17483;DHT22;8858;52.308;20.994;2023-12-29T12:53:01;10.10;99.90
17483;DHT22;8858;52.308;20.994;2023-12-29T12:55:37;10.10;99.90
17483;DHT22;8858;52.308;20.994;2023-12-29T12:58:06;10.10;99.90
17483;DHT22;8858;52.308;20.994;2023-12-29T13:00:36;10.10;99.90
17483;DHT22;8858;52.308;20.994;2023-12-29T13:03:06;10.10;99.90
17483;DHT22;8858;52.308;20.994;2023-12-29T13:05:36;10.10;99.90
17483;DHT22;8858;52.308;20.994;2023-12-29T13:08:06;10.10;99.90
17483;DHT22;8858;52.308;20.994;2023-12-29T13:10:40;10.10;99.90
17483;DHT22;8858;52.308;20.994;2023-12-29T13:13:12;10.10;99.90
17483;DHT22;8858;52.308;20.994;2023-12-29T13:15:49;10.10;99.90
17483;DHT22;8858;52.308;20.994;2023-12-29T13:18:28;10.10;99.90
17483;DHT22;8858;52.308;20.994;2023-12-29T13:20:59;10.20;99.90
17483;DHT22;8858;52.308;20.994;2023-12-29T13:23:28;10.20;99.90
17483;DHT22;8858;52.308;20.994;2023-12-29T13:25:57;10.20;99.90
17483;DHT22;8858;52.308;20.994;2023-12-29T13:28:27;10.20;99.90
17483;DHT22;8858;52.308;20.994;2023-12-29T13:30:59;10.20;99.90
17483;DHT22;8858;52.308;20.994;2023-12-29T13:33:31;10.20;99.90
17483;DHT22;8858;52.308;20.994;2023-12-29T13:36:08;10.20;99.90
17483;DHT22;8858;52.308;20.994;2023-12-29T13:38:42;10.20;99.90
17483;DHT22;8858;52.308;20.994;2023-12-29T13:41:16;10.20;99.90
17483;DHT22;8858;52.308;20.994;2023-12-29T13:43:46;10.20;99.90
17483;DHT22;8858;52.308;20.994;2023-12-29T13:46:18;10.20;99.90
17483;DHT22;8858;52.308;20.994;2023-12-29T13:48:48;10.20;99.90
17483;DHT22;8858;52.308;20.994;2023-12-29T13:51:23;10.20;99.90
17483;DHT22;8858;52.308;20.994;2023-12-29T13:54:02;10.20;99.90
17483;DHT22;8858;52.308;20.994;2023-12-29T13:56:30;10.20;99.90
17483;DHT22;8858;52.308;20.994;2023-12-29T13:58:59;10.20;99.90
17483;DHT22;8858;52.308;20.994;2023-12-29T14:01:37;10.30;99.90
17483;DHT22;8858;52.308;20.994;2023-12-29T14:04:07;10.30;99.90
17483;DHT22;8858;52.308;20.994;2023-12-29T14:07:04;10.20;99.90
17483;DHT22;8858;52.308;20.994;2023-12-29T14:09:40;10.20;99.90
17483;DHT22;8858;52.308;20.994;2023-12-29T14:12:10;10.20;99.90
17483;DHT22;8858;52.308;20.994;2023-12-29T14:14:38;10.20;99.90
17483;DHT22;8858;52.308;20.994;2023-12-29T14:17:08;10.20;99.90
17483;DHT22;8858;52.308;20.994;2023-12-29T14:19:42;10.20;99.90
17483;DHT22;8858;52.308;20.994;2023-12-29T14:22:10;10.20;99.90
17483;DHT22;8858;52.308;20.994;2023-12-29T14:24:39;10.20;99.90
17483;DHT22;8858;52.308;20.994;2023-12-29T14:27:10;10.20;99.90
17483;DHT22;8858;52.308;20.994;2023-12-29T14:29:40;10.20;99.90
17483;DHT22;8858;52.308;20.994;2023-12-29T14:32:11;10.20;99.90
17483;DHT22;8858;52.308;20.994;2023-12-29T14:34:40;10.20;99.90
17483;DHT22;8858;52.308;20.994;2023-12-29T14:37:09;10.10;99.90
17483;DHT22;8858;52.308;20.994;2023-12-29T14:39:37;10.10;99.90
17483;DHT22;8858;52.308;20.994;2023-12-29T14:42:06;10.10;99.90
17483;DHT22;8858;52.308;20.994;2023-12-29T14:44:34;10.10;99.90
17483;DHT22;8858;52.308;20.994;2023-12-29T14:47:03;10.00;99.90
17483;DHT22;8858;52.308;20.994;2023-12-29T14:49:35;10.00;99.90
17483;DHT22;8858;52.308;20.994;2023-12-29T14:52:04;10.00;99.90
17483;DHT22;8858;52.308;20.994;2023-12-29T14:54:33;10.00;99.90
17483;DHT22;8858;52.308;20.994;2023-12-29T14:57:01;10.10;99.90
17483;DHT22;8858;52.308;20.994;2023-12-29T14:59:41;10.00;99.90
17483;DHT22;8858;52.308;20.994;2023-12-29T15:02:09;10.00;99.90
17483;DHT22;8858;52.308;20.994;2023-12-29T15:04:39;10.00;99.90
17483;DHT22;8858;52.308;20.994;2023-12-29T15:07:08;10.00;99.90
17483;DHT22;8858;52.308;20.994;2023-12-29T15:09:37;9.90;99.90
17483;DHT22;8858;52.308;20.994;2023-12-29T15:12:06;9.90;99.90
17483;DHT22;8858;52.308;20.994;2023-12-29T15:14:34;9.90;99.90
17483;DHT22;8858;52.308;20.994;2023-12-29T15:17:02;9.80;99.90
17483;DHT22;8858;52.308;20.994;2023-12-29T15:19:31;9.80;99.90
17483;DHT22;8858;52.308;20.994;2023-12-29T15:22:00;9.80;99.90
17483;DHT22;8858;52.308;20.994;2023-12-29T15:24:29;9.80;99.90
17483;DHT22;8858;52.308;20.994;2023-12-29T15:26:58;9.80;99.90
17483;DHT22;8858;52.308;20.994;2023-12-29T15:29:26;9.90;99.90
17483;DHT22;8858;52.308;20.994;2023-12-29T15:31:56;9.80;99.90
17483;DHT22;8858;52.308;20.994;2023-12-29T15:34:24;9.80;99.90
17483;DHT22;8858;52.308;20.994;2023-12-29T15:36:54;9.90;99.90
17483;DHT22;8858;52.308;20.994;2023-12-29T15:39:28;9.90;99.90
17483;DHT22;8858;52.308;20.994;2023-12-29T15:41:56;9.90;99.90
17483;DHT22;8858;52.308;20.994;2023-12-29T15:44:24;9.90;99.90
17483;DHT22;8858;52.308;20.994;2023-12-29T15:46:52;9.90;99.90
17483;DHT22;8858;52.308;20.994;2023-12-29T15:49:21;9.90;99.90
17483;DHT22;8858;52.308;20.994;2023-12-29T15:51:53;9.90;99.90
17483;DHT22;8858;52.308;20.994;2023-12-29T15:54:21;9.90;99.90
17483;DHT22;8858;52.308;20.994;2023-12-29T15:56:51;9.90;99.90
17483;DHT22;8858;52.308;20.994;2023-12-29T15:59:19;9.90;99.90
17483;DHT22;8858;52.308;20.994;2023-12-29T16:01:47;9.80;99.90
17483;DHT22;8858;52.308;20.994;2023-12-29T16:04:15;9.80;99.90